createdAt,value
2023-12-30T00:00:18.731Z,16.63
2023-12-30T00:03:21.492Z,16.60
2023-12-30T00:06:23.136Z,16.59
2023-12-30T00:09:24.774Z,16.57
2023-12-30T00:12:29.026Z,16.56
2023-12-30T00:15:30.603Z,16.54
2023-12-30T00:18:32.388Z,16.54
2023-12-30T00:21:33.992Z,16.52
2023-12-30T00:24:36.532Z,16.51
2023-12-30T00:27:38.278Z,16.50
2023-12-30T00:30:39.968Z,16.49
2023-12-30T00:33:41.607Z,16.48
2023-12-30T00:36:46.280Z,16.48
2023-12-30T00:39:48.630Z,16.48
2023-12-30T00:42:50.364Z,16.45
2023-12-30T00:45:52.074Z,16.46
2023-12-30T00:48:57.369Z,16.44
2023-12-30T00:52:00.952Z,16.44
2023-12-30T00:55:02.886Z,16.43
2023-12-30T00:58:04.506Z,16.40
2023-12-30T01:01:08.346Z,16.43
2023-12-30T01:04:10.156Z,16.40
2023-12-30T01:07:11.814Z,16.39
2023-12-30T01:10:13.552Z,16.37
2023-12-30T01:13:15.212Z,16.37
2023-12-30T01:16:18.032Z,16.37
2023-12-30T01:19:21.327Z,16.36
2023-12-30T01:22:22.985Z,16.36
2023-12-30T01:25:24.658Z,16.35
2023-12-30T01:28:27.199Z,16.34
2023-12-30T01:31:28.921Z,16.33
2023-12-30T01:34:30.666Z,16.33
2023-12-30T01:37:34.789Z,16.33
2023-12-30T01:40:36.527Z,16.30
2023-12-30T01:43:38.999Z,16.29
2023-12-30T01:46:40.645Z,16.28
2023-12-30T01:49:43.900Z,16.29
2023-12-30T01:52:47.364Z,16.29
2023-12-30T01:55:51.837Z,16.29
2023-12-30T01:58:53.701Z,16.28
2023-12-30T02:01:57.072Z,16.29
2023-12-30T02:04:59.462Z,16.26
2023-12-30T02:08:01.626Z,16.25
2023-12-30T02:11:04.679Z,16.26
2023-12-30T02:14:23.483Z,16.27
2023-12-30T02:17:25.150Z,16.23
2023-12-30T02:20:26.876Z,16.23
2023-12-30T02:23:28.447Z,16.22
2023-12-30T02:26:31.938Z,16.22
2023-12-30T02:29:33.518Z,16.20
2023-12-30T02:32:35.122Z,16.21
2023-12-30T02:35:36.703Z,16.19
2023-12-30T02:38:38.366Z,16.19
2023-12-30T02:41:41.559Z,16.20
2023-12-30T02:44:43.820Z,16.19
2023-12-30T02:47:45.734Z,16.19
2023-12-30T02:50:47.605Z,16.17
2023-12-30T02:53:49.188Z,16.17
2023-12-30T02:56:50.765Z,16.17
2023-12-30T02:59:52.596Z,16.16
2023-12-30T03:02:54.365Z,16.15
2023-12-30T03:05:55.985Z,16.14
2023-12-30T03:08:57.627Z,16.14
2023-12-30T03:11:59.203Z,16.13
2023-12-30T03:15:00.943Z,16.12
2023-12-30T03:18:02.863Z,16.11
2023-12-30T03:21:08.301Z,16.12
2023-12-30T03:24:10.138Z,16.10
2023-12-30T03:27:11.686Z,16.09
2023-12-30T03:30:13.663Z,16.09
2023-12-30T03:33:15.394Z,16.08
2023-12-30T03:36:17.001Z,16.08
2023-12-30T03:39:18.714Z,16.08
2023-12-30T03:42:20.291Z,16.07
2023-12-30T03:45:21.908Z,16.06
2023-12-30T03:48:23.958Z,16.06
2023-12-30T03:51:25.690Z,16.05
2023-12-30T03:54:27.262Z,16.05
2023-12-30T03:57:28.827Z,16.04
2023-12-30T04:00:30.446Z,16.05
2023-12-30T04:03:32.038Z,16.03
2023-12-30T04:06:33.638Z,16.04
2023-12-30T04:09:35.881Z,16.04
2023-12-30T04:12:37.534Z,16.03
2023-12-30T04:15:39.680Z,16.03
2023-12-30T04:18:41.428Z,16.01
2023-12-30T04:21:43.033Z,16.00
2023-12-30T04:24:44.716Z,15.99
2023-12-30T04:27:46.378Z,15.99
2023-12-30T04:30:48.835Z,15.98
2023-12-30T04:33:50.693Z,15.97
2023-12-30T04:36:52.486Z,15.95
2023-12-30T04:39:54.132Z,15.95
2023-12-30T04:42:55.743Z,15.93
2023-12-30T04:45:57.476Z,15.92
2023-12-30T04:49:02.612Z,15.91
2023-12-30T04:52:05.680Z,15.92
2023-12-30T04:55:07.631Z,15.91
2023-12-30T04:58:09.324Z,15.88
2023-12-30T05:01:12.669Z,15.89
2023-12-30T05:04:14.355Z,15.88
2023-12-30T05:07:16.016Z,15.88
2023-12-30T05:10:17.779Z,15.87
2023-12-30T05:13:19.421Z,15.86
2023-12-30T05:16:21.016Z,15.86
2023-12-30T05:19:22.776Z,15.84
2023-12-30T05:22:24.439Z,15.84
2023-12-30T05:25:26.009Z,15.83
2023-12-30T05:28:27.629Z,15.83
2023-12-30T05:31:29.336Z,15.83
2023-12-30T05:34:30.985Z,15.82
2023-12-30T05:37:32.617Z,15.81
2023-12-30T05:40:34.442Z,15.80
2023-12-30T05:43:38.165Z,15.80
2023-12-30T05:46:39.773Z,15.79
2023-12-30T05:52:43.471Z,15.79
2023-12-30T05:55:45.072Z,15.77
2023-12-30T05:58:46.623Z,15.77
2023-12-30T06:01:48.425Z,15.76
2023-12-30T06:04:50.146Z,15.76
2023-12-30T06:07:52.075Z,15.75
2023-12-30T06:10:55.153Z,15.76
2023-12-30T06:13:56.826Z,15.74
2023-12-30T06:16:58.414Z,15.74
2023-12-30T06:20:00.068Z,15.74
2023-12-30T06:23:01.977Z,15.73
2023-12-30T06:26:03.765Z,15.73
2023-12-30T06:29:06.827Z,15.72
2023-12-30T06:32:08.830Z,15.71
2023-12-30T06:35:10.445Z,15.70
2023-12-30T06:38:13.679Z,15.70
2023-12-30T06:41:15.835Z,15.69
2023-12-30T06:44:17.490Z,15.68
2023-12-30T06:47:19.076Z,15.69
2023-12-30T06:50:22.795Z,15.68
2023-12-30T06:53:24.366Z,15.68
2023-12-30T06:56:25.997Z,15.66
2023-12-30T06:59:27.852Z,15.66
2023-12-30T07:02:29.436Z,15.65
2023-12-30T07:05:36.900Z,15.65
2023-12-30T07:08:38.714Z,15.65
2023-12-30T07:11:40.274Z,15.65
2023-12-30T07:14:41.947Z,15.63
2023-12-30T07:17:43.617Z,15.64
2023-12-30T07:20:45.462Z,15.63
2023-12-30T07:23:47.061Z,15.63
2023-12-30T07:26:48.629Z,15.62
2023-12-30T07:29:50.194Z,15.61
2023-12-30T07:32:51.850Z,15.62
2023-12-30T07:35:54.678Z,15.62
2023-12-30T07:38:56.553Z,15.60
2023-12-30T07:41:58.099Z,15.61
2023-12-30T07:44:59.729Z,15.63
2023-12-30T07:48:01.417Z,15.65
2023-12-30T07:51:03.374Z,15.68
2023-12-30T07:54:05.033Z,15.72
2023-12-30T07:57:06.709Z,15.75
2023-12-30T08:00:09.688Z,15.80
2023-12-30T08:03:14.210Z,15.82
2023-12-30T08:06:15.961Z,15.85
2023-12-30T08:09:17.996Z,15.90
2023-12-30T08:12:19.560Z,15.93
2023-12-30T08:15:21.115Z,15.96
2023-12-30T08:18:23.756Z,16.00
2023-12-30T08:21:25.420Z,16.04
2023-12-30T08:24:29.392Z,16.07
2023-12-30T08:27:31.117Z,16.12
2023-12-30T08:30:32.866Z,16.14
2023-12-30T08:33:34.491Z,16.18
2023-12-30T08:36:36.673Z,16.19
2023-12-30T08:39:38.899Z,16.22
2023-12-30T08:42:40.513Z,16.25
2023-12-30T08:45:42.117Z,16.26
2023-12-30T08:48:43.773Z,16.26
2023-12-30T08:51:45.372Z,16.28
2023-12-30T08:54:47.519Z,16.30
2023-12-30T08:57:49.260Z,16.31
2023-12-30T09:00:51.548Z,16.31
2023-12-30T09:03:53.468Z,16.31
2023-12-30T09:06:55.122Z,16.31
2023-12-30T09:09:57.588Z,16.32
2023-12-30T09:12:59.770Z,16.34
2023-12-30T09:16:01.680Z,16.34
2023-12-30T09:19:03.393Z,16.38
2023-12-30T09:22:05.252Z,16.39
2023-12-30T09:25:07.436Z,16.42
2023-12-30T09:28:09.013Z,16.42
2023-12-30T09:31:11.561Z,16.44
2023-12-30T09:34:13.312Z,16.45
2023-12-30T09:37:16.094Z,16.44
2023-12-30T09:40:19.079Z,16.44
2023-12-30T09:43:24.259Z,16.44
2023-12-30T09:46:26.030Z,16.43
2023-12-30T09:49:31.730Z,16.44
2023-12-30T09:52:33.483Z,16.44
2023-12-30T09:55:35.187Z,16.45
2023-12-30T09:58:37.636Z,16.47
2023-12-30T10:01:41.058Z,16.47
2023-12-30T10:04:42.917Z,16.49
2023-12-30T10:07:44.881Z,16.50
2023-12-30T10:10:48.450Z,16.52
2023-12-30T10:13:50.769Z,16.50
2023-12-30T10:16:52.366Z,16.50
2023-12-30T10:19:54.728Z,16.50
2023-12-30T10:22:57.341Z,16.50
2023-12-30T10:25:59.801Z,16.49
2023-12-30T10:29:02.805Z,16.48
2023-12-30T10:32:05.280Z,16.49
2023-12-30T10:35:07.153Z,16.49
2023-12-30T10:38:14.545Z,16.51
2023-12-30T10:41:16.334Z,16.51
2023-12-30T10:44:18.854Z,16.53
2023-12-30T10:50:25.350Z,16.55
2023-12-30T10:53:37.193Z,16.57
2023-12-30T10:56:45.433Z,16.57
2023-12-30T10:59:51.036Z,16.57
2023-12-30T11:02:52.831Z,16.57
2023-12-30T11:06:31.806Z,16.43
2023-12-30T11:09:34.470Z,16.15
2023-12-30T11:12:36.008Z,15.93
2023-12-30T11:15:39.440Z,15.73
2023-12-30T11:18:56.811Z,15.56
2023-12-30T11:22:05.852Z,15.34
2023-12-30T11:25:09.526Z,15.20
2023-12-30T11:28:22.213Z,15.15
2023-12-30T11:31:41.370Z,15.19
2023-12-30T11:34:43.095Z,15.34
2023-12-30T11:37:48.039Z,15.52
2023-12-30T11:40:52.813Z,15.68
2023-12-30T11:43:59.543Z,15.83
2023-12-30T11:47:01.120Z,15.93
2023-12-30T11:50:10.703Z,16.02
2023-12-30T11:53:13.889Z,16.10
2023-12-30T11:56:16.976Z,16.19
2023-12-30T11:59:19.294Z,16.28
2023-12-30T12:02:22.475Z,16.32
2023-12-30T12:05:24.184Z,16.40
2023-12-30T12:08:25.841Z,16.44
2023-12-30T12:11:27.435Z,16.49
2023-12-30T12:14:30.524Z,16.53
2023-12-30T12:17:32.730Z,16.57
2023-12-30T12:20:39.108Z,16.61
2023-12-30T12:23:44.729Z,16.61
2023-12-30T12:26:46.218Z,16.60
2023-12-30T12:29:50.873Z,16.61
2023-12-30T12:32:52.474Z,16.58
2023-12-30T12:35:54.065Z,16.56
2023-12-30T12:38:55.831Z,16.56
2023-12-30T12:41:57.477Z,16.55
2023-12-30T12:44:59.119Z,16.53
2023-12-30T12:48:01.061Z,16.55
2023-12-30T12:51:02.806Z,16.52
2023-12-30T12:54:04.417Z,16.54
2023-12-30T12:57:06.216Z,16.54
2023-12-30T13:00:09.907Z,16.54
2023-12-30T13:03:12.062Z,16.55
2023-12-30T13:06:14.126Z,16.53
2023-12-30T13:09:34.490Z,16.52
2023-12-30T13:12:36.086Z,16.52
2023-12-30T13:15:38.727Z,16.52
2023-12-30T13:18:40.556Z,16.53
2023-12-30T13:21:42.463Z,16.52
2023-12-30T13:24:45.796Z,16.53
2023-12-30T13:27:47.502Z,16.53
2023-12-30T13:30:49.092Z,16.53
2023-12-30T13:33:53.112Z,16.54
2023-12-30T13:36:58.054Z,16.54
2023-12-30T13:40:02.436Z,16.54
2023-12-30T13:43:08.986Z,16.55
2023-12-30T13:46:29.714Z,16.58
2023-12-30T13:50:08.982Z,16.54
2023-12-30T13:53:11.172Z,16.55
2023-12-30T13:56:20.596Z,16.54
2023-12-30T13:59:24.455Z,16.55
2023-12-30T14:02:26.989Z,16.55
2023-12-30T14:05:35.554Z,16.54
2023-12-30T14:08:43.202Z,16.53
2023-12-30T14:11:49.626Z,16.58
2023-12-30T14:14:56.104Z,16.62
2023-12-30T14:17:58.010Z,16.60
2023-12-30T14:20:59.685Z,16.62
2023-12-30T14:24:01.319Z,16.63
2023-12-30T14:27:02.961Z,16.64
2023-12-30T14:30:07.667Z,16.66
2023-12-30T14:33:10.217Z,16.64
2023-12-30T14:36:12.406Z,16.64
2023-12-30T14:39:16.462Z,16.65
2023-12-30T14:42:18.470Z,16.66
2023-12-30T14:45:21.128Z,16.66
2023-12-30T14:48:22.796Z,16.68
2023-12-30T14:51:24.377Z,16.69
2023-12-30T14:54:25.914Z,16.69
2023-12-30T14:57:28.992Z,16.71
2023-12-30T15:00:30.627Z,16.71
2023-12-30T15:03:32.466Z,16.74
2023-12-30T15:06:35.970Z,16.74
2023-12-30T15:09:37.613Z,16.74
2023-12-30T15:12:40.660Z,16.74
2023-12-30T15:15:42.379Z,16.74
2023-12-30T15:18:44.123Z,16.75
2023-12-30T15:21:45.853Z,16.76
2023-12-30T15:24:47.583Z,16.77
2023-12-30T15:27:52.780Z,16.76
2023-12-30T15:30:54.526Z,16.77
2023-12-30T15:33:56.391Z,16.78
2023-12-30T15:36:58.022Z,16.81
2023-12-30T15:39:59.708Z,16.79
2023-12-30T15:43:02.159Z,16.80
2023-12-30T15:46:07.355Z,16.82
2023-12-30T15:49:11.272Z,16.83
2023-12-30T15:52:14.319Z,16.84
2023-12-30T15:55:16.240Z,16.83
2023-12-30T15:58:18.360Z,16.83
2023-12-30T16:01:20.003Z,16.82
2023-12-30T16:04:21.645Z,16.83
2023-12-30T16:07:27.822Z,16.85
2023-12-30T16:10:29.482Z,16.82
2023-12-30T16:13:31.150Z,16.84
2023-12-30T16:16:34.907Z,16.85
2023-12-30T16:19:37.024Z,16.85
2023-12-30T16:22:38.860Z,16.86
2023-12-30T16:25:41.212Z,16.86
2023-12-30T16:28:45.925Z,16.87
2023-12-30T16:31:47.751Z,16.87
2023-12-30T16:34:49.883Z,16.86
2023-12-30T16:37:52.975Z,16.87
2023-12-30T16:40:54.551Z,16.88
2023-12-30T16:43:56.446Z,16.89
2023-12-30T16:46:58.184Z,16.91
2023-12-30T16:49:59.769Z,16.93
2023-12-30T16:53:01.725Z,16.95
2023-12-30T16:56:03.601Z,16.96
2023-12-30T16:59:05.204Z,16.96
2023-12-30T17:02:07.168Z,16.97
2023-12-30T17:05:10.020Z,16.99
2023-12-30T17:08:13.005Z,16.99
2023-12-30T17:11:14.577Z,16.99
2023-12-30T17:14:16.214Z,17.00
2023-12-30T17:17:17.838Z,16.99
2023-12-30T17:20:19.498Z,17.00
2023-12-30T17:23:21.415Z,17.00
2023-12-30T17:26:23.019Z,17.00
2023-12-30T17:29:24.558Z,17.00
2023-12-30T17:32:27.434Z,17.01
2023-12-30T17:35:29.038Z,17.02
2023-12-30T17:38:30.614Z,17.01
2023-12-30T17:41:32.295Z,17.02
2023-12-30T17:44:33.791Z,17.02
2023-12-30T17:47:37.503Z,17.03
2023-12-30T17:50:39.796Z,17.03
2023-12-30T17:53:41.442Z,17.03
2023-12-30T17:56:42.951Z,17.03
2023-12-30T17:59:44.483Z,17.03
2023-12-30T18:02:46.050Z,17.03
2023-12-30T18:05:47.944Z,17.06
2023-12-30T18:08:49.628Z,17.07
2023-12-30T18:11:51.209Z,17.06
2023-12-30T18:14:52.739Z,17.08
2023-12-30T18:17:54.503Z,17.09
2023-12-30T18:20:56.986Z,17.09
2023-12-30T18:23:58.545Z,17.10
2023-12-30T18:27:00.069Z,17.10
2023-12-30T18:30:02.001Z,17.09
2023-12-30T18:33:03.930Z,17.10
2023-12-30T18:36:06.244Z,17.11
2023-12-30T18:39:08.005Z,17.10
2023-12-30T18:42:09.598Z,17.11
2023-12-30T18:45:11.886Z,17.12
2023-12-30T18:48:15.489Z,17.12
2023-12-30T18:51:17.442Z,17.11
2023-12-30T18:54:19.357Z,17.12
2023-12-30T18:57:20.952Z,17.12
2023-12-30T19:00:25.087Z,17.12
2023-12-30T19:03:26.831Z,17.13
2023-12-30T19:06:28.908Z,17.14
2023-12-30T19:09:30.491Z,17.14
2023-12-30T19:12:32.508Z,17.15
2023-12-30T19:15:34.060Z,17.16
2023-12-30T19:18:35.683Z,17.17
2023-12-30T19:21:37.388Z,17.20
2023-12-30T19:24:39.126Z,17.21
2023-12-30T19:27:40.711Z,17.20
2023-12-30T19:30:42.390Z,17.20
2023-12-30T19:33:44.497Z,17.17
2023-12-30T19:36:46.555Z,17.19
2023-12-30T19:39:48.514Z,17.15
2023-12-30T19:42:51.358Z,17.15
2023-12-30T19:45:53.124Z,17.13
2023-12-30T19:48:54.666Z,17.13
2023-12-30T19:51:57.114Z,17.14
2023-12-30T19:54:58.778Z,17.15
2023-12-30T19:58:00.285Z,17.15
2023-12-30T20:01:01.907Z,17.15
2023-12-30T20:04:03.807Z,17.15
2023-12-30T20:07:06.068Z,17.16
2023-12-30T20:10:10.376Z,17.15
2023-12-30T20:13:12.088Z,17.13
2023-12-30T20:16:14.224Z,17.14
2023-12-30T20:19:16.616Z,17.14
2023-12-30T20:22:18.464Z,17.16
2023-12-30T20:25:20.192Z,17.15
2023-12-30T20:28:21.795Z,17.16
2023-12-30T20:31:23.397Z,17.16
2023-12-30T20:34:25.559Z,17.19
2023-12-30T20:37:29.455Z,17.17
2023-12-30T20:40:31.668Z,17.17
2023-12-30T20:43:33.452Z,17.17
2023-12-30T20:46:35.126Z,17.16
2023-12-30T20:49:36.805Z,17.15
2023-12-30T20:52:39.107Z,17.16
2023-12-30T20:55:40.848Z,17.19
2023-12-30T20:58:42.604Z,17.17
2023-12-30T21:01:44.321Z,17.17
2023-12-30T21:04:46.062Z,17.17
2023-12-30T21:07:47.796Z,17.18
2023-12-30T21:10:49.934Z,17.19
2023-12-30T21:13:51.617Z,17.17
2023-12-30T21:16:55.395Z,17.18
2023-12-30T21:19:57.392Z,17.18
2023-12-30T21:22:59.014Z,17.18
2023-12-30T21:26:00.867Z,17.19
2023-12-30T21:29:02.613Z,17.20
2023-12-30T21:32:05.372Z,17.21
2023-12-30T21:35:07.572Z,17.20
2023-12-30T21:38:09.160Z,17.20
2023-12-30T21:41:12.870Z,17.19
2023-12-30T21:44:14.500Z,17.19
2023-12-30T21:47:17.583Z,17.18
2023-12-30T21:50:19.210Z,17.17
2023-12-30T21:53:20.787Z,17.15
2023-12-30T21:56:24.511Z,17.15
2023-12-30T21:59:26.070Z,17.13
2023-12-30T22:02:28.552Z,17.13
2023-12-30T22:05:30.158Z,17.11
2023-12-30T22:08:32.061Z,17.10
2023-12-30T22:11:34.142Z,17.09
2023-12-30T22:14:35.917Z,17.08
2023-12-30T22:17:37.498Z,17.07
2023-12-30T22:20:39.078Z,17.04
2023-12-30T22:23:40.663Z,17.04
2023-12-30T22:26:42.222Z,17.03
2023-12-30T22:29:43.945Z,17.02
2023-12-30T22:32:45.614Z,17.02
2023-12-30T22:35:49.365Z,17.01
2023-12-30T22:38:50.896Z,17.00
2023-12-30T22:41:54.090Z,16.99
2023-12-30T22:44:55.677Z,16.98
2023-12-30T22:47:57.254Z,16.97
2023-12-30T22:50:58.844Z,16.94
2023-12-30T22:54:00.461Z,16.93
2023-12-30T22:57:04.545Z,16.92
2023-12-30T23:00:15.541Z,16.93
2023-12-30T23:03:17.773Z,16.89
2023-12-30T23:06:19.341Z,16.89
2023-12-30T23:09:20.979Z,16.88
2023-12-30T23:12:22.537Z,16.85
2023-12-30T23:15:24.185Z,16.84
2023-12-30T23:18:25.794Z,16.80
2023-12-30T23:21:34.240Z,16.81
2023-12-30T23:24:35.876Z,16.77
2023-12-30T23:27:37.478Z,16.76
2023-12-30T23:30:39.207Z,16.73
2023-12-30T23:33:41.929Z,16.73
2023-12-30T23:36:43.523Z,16.71
2023-12-30T23:39:46.956Z,16.69
2023-12-30T23:42:48.597Z,16.70
2023-12-30T23:45:50.258Z,16.68
2023-12-30T23:48:51.876Z,16.67
2023-12-30T23:51:53.469Z,16.66
2023-12-30T23:54:55.353Z,16.65
2023-12-30T23:57:57.059Z,16.64
